Time;durP1;ratioP1;P1;durP2;ratioP2;P2;SDS_P1;SDS_P2;PMS_P1;PMS_P2;Temp;Humidity;BMP_temperature;BMP_pressure;BME280_temperature;BME280_humidity;BME280_pressure;Samples;Min_cycle;Max_cycle;Signal;HPM_P1;HPM_P2
2023/10/18 00:01:02;;;;;;;14.15;10.00;;;;;;;5.18;100.00;101312.97;6186877;23;20012;-80
2023/10/18 00:03:32;;;;;;;13.68;9.82;;;;;;;5.21;100.00;101315.47;6186329;23;20005;-80
2023/10/18 00:05:59;;;;;;;13.75;9.82;;;;;;;5.17;100.00;101314.72;6186610;23;20005;-76
2023/10/18 00:08:24;;;;;;;12.95;9.90;;;;;;;5.21;100.00;101310.34;6186821;23;20052;-78
2023/10/18 00:10:53;;;;;;;11.45;10.13;;;;;;;4.97;100.00;101271.00;6186604;23;20005;-77
2023/10/18 00:13:25;;;;;;;13.95;10.13;;;;;;;5.27;100.00;101310.13;6186374;23;20453;-76
2023/10/18 00:15:53;;;;;;;14.43;9.68;;;;;;;5.24;100.00;101310.22;6186456;23;20001;-77
2023/10/18 00:18:20;;;;;;;13.93;9.38;;;;;;;5.23;100.00;101307.72;6186075;23;20399;-78
2023/10/18 00:20:45;;;;;;;13.45;9.98;;;;;;;5.18;100.00;101303.56;6186258;23;20009;-78
2023/10/18 00:23:11;;;;;;;13.50;9.88;;;;;;;5.18;100.00;101300.19;6186586;23;20035;-76
2023/10/18 00:25:36;;;;;;;12.23;9.68;;;;;;;5.02;100.00;101292.19;6186288;23;20001;-78
2023/10/18 00:28:03;;;;;;;13.35;10.07;;;;;;;5.11;100.00;101304.69;6184098;23;20076;-77
2023/10/18 00:30:30;;;;;;;16.05;10.40;;;;;;;5.04;100.00;101287.84;6186053;23;20006;-77
2023/10/18 00:32:55;;;;;;;15.45;10.40;;;;;;;5.02;100.00;101281.94;6186165;23;20427;-76
2023/10/18 00:35:22;;;;;;;15.82;10.05;;;;;;;5.05;100.00;101293.81;6186187;23;20043;-77
2023/10/18 00:37:49;;;;;;;13.68;10.38;;;;;;;5.01;100.00;101287.91;6209207;23;20004;-79
2023/10/18 00:40:21;;;;;;;12.57;10.20;;;;;;;5.00;100.00;101298.22;6186263;23;20157;-78
2023/10/18 00:42:46;;;;;;;;;;;;;;;4.99;100.00;101292.25;6186613;23;20438;-79
2023/10/18 00:45:12;;;;;;;13.23;9.82;;;;;;;4.97;100.00;101293.22;6185957;23;19908;-77
2023/10/18 00:47:38;;;;;;;14.88;10.73;;;;;;;4.96;100.00;101299.22;6185798;23;20060;-79
2023/10/18 00:50:05;;;;;;;14.70;11.07;;;;;;;4.89;100.00;101298.56;6186155;23;20374;-80
2023/10/18 00:52:32;;;;;;;14.60;11.25;;;;;;;4.81;100.00;101285.16;6186100;23;20059;-77
2023/10/18 00:54:57;;;;;;;13.13;10.25;;;;;;;4.76;100.00;101277.66;6184711;23;20019;-76
2023/10/18 00:57:26;;;;;;;15.40;10.75;;;;;;;4.85;100.00;101289.31;6186399;23;20080;-76
2023/10/18 00:59:53;;;;;;;15.20;11.27;;;;;;;4.78;100.00;101275.03;6209394;23;20404;-76
2023/10/18 01:02:19;;;;;;;14.60;11.15;;;;;;;4.85;100.00;101279.91;6185974;23;20846;-79
2023/10/18 01:04:52;;;;;;;16.40;11.82;;;;;;;4.72;100.00;101262.44;6185664;23;20028;-79
2023/10/18 01:07:20;;;;;;;16.60;11.60;;;;;;;4.75;100.00;101270.88;6183925;23;20075;-76
2023/10/18 01:09:53;;;;;;;15.90;10.90;;;;;;;4.73;100.00;101262.41;6186178;23;20016;-76
2023/10/18 01:12:20;;;;;;;14.95;11.02;;;;;;;4.71;100.00;101260.75;6185846;23;20005;-75
2023/10/18 01:14:45;;;;;;;16.42;11.65;;;;;;;4.76;100.00;101261.47;6185969;23;20005;-79
2023/10/18 01:17:11;;;;;;;16.42;11.65;;;;;;;4.63;100.00;101240.56;6185939;23;20012;-76
2023/10/18 01:19:40;;;;;;;15.93;11.52;;;;;;;4.75;100.00;101260.63;6185606;23;20005;-81
2023/10/18 01:22:06;;;;;;;16.27;12.65;;;;;;;4.54;100.00;101220.41;6186540;23;20484;-81
2023/10/18 01:24:35;;;;;;;14.57;10.88;;;;;;;4.71;100.00;101237.75;6186772;23;20080;-75
2023/10/18 01:27:05;;;;;;;14.60;11.55;;;;;;;4.76;100.00;101248.69;6185965;23;20005;-79
2023/10/18 01:29:31;;;;;;;16.83;11.07;;;;;;;4.77;100.00;101235.81;6185827;23;20029;-79
2023/10/18 01:31:57;;;;;;;14.50;11.68;;;;;;;4.75;100.00;101239.34;6185886;23;20002;-76
2023/10/18 01:34:23;;;;;;;15.98;11.48;;;;;;;4.73;100.00;101236.00;6185813;23;20072;-76
2023/10/18 01:36:49;;;;;;;14.65;10.80;;;;;;;4.65;100.00;101222.59;6185906;23;20001;-76
2023/10/18 01:39:20;;;;;;;14.05;10.75;;;;;;;4.70;100.00;101229.22;6185908;23;20327;-79
2023/10/18 01:41:51;;;;;;;13.55;10.75;;;;;;;4.70;100.00;101226.66;6185629;23;20008;-80
2023/10/18 01:44:35;;;;;;;14.00;11.15;;;;;;;4.68;100.00;101219.94;6185874;23;20005;-80
2023/10/18 01:47:08;;;;;;;14.60;11.13;;;;;;;4.67;100.00;101215.72;6184287;23;20009;-79
2023/10/18 01:49:41;;;;;;;16.75;10.75;;;;;;;4.53;100.00;101188.03;6185673;23;20020;-79
2023/10/18 01:52:11;;;;;;;14.25;10.57;;;;;;;4.67;100.00;101206.31;6185919;23;20028;-80
2023/10/18 01:54:38;;;;;;;13.65;10.48;;;;;;;4.66;100.00;101203.81;6186069;23;20005;-80
2023/10/18 01:57:06;;;;;;;14.70;10.65;;;;;;;4.52;100.00;101179.53;6185681;23;20005;-80
2023/10/18 01:59:34;;;;;;;13.43;10.35;;;;;;;4.68;100.00;101184.97;6208995;23;20012;-79
2023/10/18 02:02:00;;;;;;;14.90;10.38;;;;;;;4.60;100.00;101172.41;6185874;23;20005;-78
2023/10/18 02:04:26;;;;;;;16.08;11.10;;;;;;;4.72;100.00;101193.34;6185469;23;20040;-79
2023/10/18 02:07:01;;;;;;;14.88;10.52;;;;;;;4.71;100.00;101196.81;6185557;23;20028;-79
2023/10/18 02:09:31;;;;;;;14.93;10.25;;;;;;;4.46;100.00;101151.59;6185455;23;19997;-80
2023/10/18 02:11:56;;;;;;;14.50;10.32;;;;;;;4.56;100.00;101159.78;6185452;23;20009;-76
2023/10/18 02:14:22;;;;;;;13.00;10.25;;;;;;;4.58;100.00;101158.84;6185277;23;19997;-80
2023/10/18 02:16:47;;;;;;;14.38;10.73;;;;;;;4.70;100.00;101175.50;6185134;23;20012;-80
2023/10/18 02:19:15;;;;;;;14.20;10.07;;;;;;;4.67;100.00;101165.38;6185281;23;20048;-80
2023/10/18 02:21:41;;;;;;;13.60;10.07;;;;;;;4.53;100.00;101145.38;6185330;23;20309;-79
2023/10/18 02:24:07;;;;;;;13.52;9.98;;;;;;;4.68;100.00;101156.81;6185185;23;20004;-77
2023/10/18 02:26:33;;;;;;;13.27;9.70;;;;;;;4.49;100.00;101125.91;6185274;23;20005;-80
2023/10/18 02:29:05;;;;;;;13.90;10.40;;;;;;;4.68;100.00;101161.09;6183864;23;20119;-76
2023/10/18 02:31:30;;;;;;;14.00;11.02;;;;;;;4.68;100.00;101153.44;6185212;23;20060;-76
2023/10/18 02:33:56;;;;;;;16.75;11.00;;;;;;;4.68;100.00;101153.44;6185345;23;20089;-80
2023/10/18 02:36:21;;;;;;;13.45;9.63;;;;;;;4.69;100.00;101152.53;6184834;23;20309;-77
2023/10/18 02:38:49;;;;;;;13.55;10.38;;;;;;;4.49;100.00;101120.78;6185083;23;20075;-80
2023/10/18 02:41:29;;;;;;;14.15;10.40;;;;;;;4.55;100.00;101132.56;6183454;23;20001;-80
2023/10/18 02:43:57;;;;;;;13.53;10.93;;;;;;;4.66;100.00;101145.81;6184983;23;20420;-79
2023/10/18 02:46:24;;;;;;;12.57;9.93;;;;;;;4.68;100.00;101138.09;6208593;23;20009;-79
2023/10/18 02:48:52;;;;;;;13.30;10.38;;;;;;;4.52;100.00;101113.03;6184942;23;20343;-79
2023/10/18 02:51:22;;;;;;;13.85;10.70;;;;;;;4.66;100.00;101140.69;6183563;23;20041;-80
2023/10/18 02:56:40;;;;;;;15.02;10.52;;;;;;;4.49;100.00;101115.66;6185839;23;20009;-76
2023/10/18 02:59:08;;;;;;;13.75;9.95;;;;;;;4.57;100.00;101129.03;6184933;23;20091;-78
2023/10/18 03:01:36;;;;;;;17.17;10.88;;;;;;;4.45;100.00;101101.34;6185388;23;20304;-79
2023/10/18 03:04:06;;;;;;;13.68;10.70;;;;;;;4.45;100.00;101108.16;6184920;23;20012;-78
2023/10/18 03:06:33;;;;;;;15.45;11.10;;;;;;;4.53;100.00;101117.25;6184585;23;20005;-78
2023/10/18 03:09:00;;;;;;;12.95;10.07;;;;;;;4.48;100.00;101110.63;6185085;23;20323;-75
2023/10/18 03:11:26;;;;;;;14.23;10.05;;;;;;;4.48;100.00;101121.69;6185089;23;20442;-79
2023/10/18 03:13:52;;;;;;;16.35;11.35;;;;;;;4.37;100.00;101100.75;6184972;23;20012;-80
2023/10/18 03:16:27;;;;;;;14.40;9.85;;;;;;;4.47;100.00;101103.84;6184990;23;20029;-79
2023/10/18 03:18:53;;;;;;;15.55;10.93;;;;;;;4.44;100.00;101106.50;6184771;23;20008;-80
2023/10/18 03:21:22;;;;;;;14.93;10.23;;;;;;;4.40;100.00;101108.31;6184551;23;20323;-80
2023/10/18 03:23:51;;;;;;;16.90;10.13;;;;;;;4.23;100.00;101078.19;6185237;23;20335;-80
2023/10/18 03:26:23;;;;;;;13.02;10.07;;;;;;;4.40;100.00;101097.25;6187089;23;20024;-77
2023/10/18 03:28:51;;;;;;;13.13;10.05;;;;;;;4.43;100.00;101092.88;6186959;23;19997;-76
2023/10/18 03:31:21;;;;;;;13.98;9.63;;;;;;;4.33;100.00;101078.72;6186983;23;20013;-79
2023/10/18 03:33:48;;;;;;;15.35;10.88;;;;;;;4.30;100.00;101074.53;6186754;23;20001;-77
2023/10/18 03:36:20;;;;;;;15.95;10.55;;;;;;;4.37;100.00;101080.28;6209209;23;20383;-78
2023/10/18 03:38:53;;;;;;;14.45;10.05;;;;;;;4.40;100.00;101084.47;6186844;23;20060;-78
2023/10/18 03:41:19;;;;;;;17.15;10.50;;;;;;;4.35;100.00;101065.91;6187148;23;20032;-77
2023/10/18 03:43:48;;;;;;;14.88;9.75;;;;;;;4.49;100.00;101081.59;6186707;23;20051;-80
2023/10/18 03:46:13;;;;;;;11.63;9.32;;;;;;;4.47;100.00;101073.16;6186740;23;20479;-80
2023/10/18 03:48:39;;;;;;;13.55;9.65;;;;;;;4.45;100.00;101073.19;6186408;23;20040;-80
2023/10/18 03:51:06;;;;;;;15.52;9.73;;;;;;;4.48;100.00;101060.31;6186952;23;20012;-78
2023/10/18 03:53:32;;;;;;;13.57;10.60;;;;;;;4.50;100.00;101057.69;6186597;23;20032;-79
2023/10/18 03:55:57;;;;;;;16.05;10.45;;;;;;;4.58;100.00;101063.38;6210258;23;20063;-78
2023/10/18 03:58:24;;;;;;;13.75;10.20;;;;;;;4.62;100.00;101059.81;6186885;23;20001;-80
2023/10/18 04:00:56;;;;;;;15.85;9.77;;;;;;;4.65;100.00;101054.63;6186589;23;20420;-80
2023/10/18 04:03:27;;;;;;;13.27;10.23;;;;;;;4.62;100.00;101052.16;6186523;23;20008;-80
2023/10/18 04:05:53;;;;;;;15.40;10.15;;;;;;;4.54;100.00;101041.38;6186431;23;20037;-77
2023/10/18 04:08:18;;;;;;;14.77;10.15;;;;;;;4.37;100.00;101003.59;6186828;23;20093;-77
2023/10/18 04:10:46;;;;;;;14.07;10.25;;;;;;;4.55;100.00;101033.63;6186694;23;20030;-77
2023/10/18 04:13:14;;;;;;;14.60;9.80;;;;;;;4.55;100.00;101028.53;6187900;23;20005;-77
2023/10/18 04:15:46;;;;;;;16.63;10.60;;;;;;;4.59;100.00;101029.25;6187498;23;20378;-80
2023/10/18 04:18:12;;;;;;;13.70;9.10;;;;;;;4.64;100.00;101027.38;6187303;23;20051;-77
2023/10/18 04:20:42;;;;;;;12.35;8.93;;;;;;;4.63;100.00;101018.03;6186744;23;20489;-80
2023/10/18 04:23:26;;;;;;;11.55;8.70;;;;;;;4.54;100.00;100997.91;6186790;23;20006;-80
2023/10/18 04:26:03;;;;;;;13.52;9.50;;;;;;;4.59;100.00;101001.94;6185460;23;20427;-79
2023/10/18 04:28:31;;;;;;;14.07;9.63;;;;;;;4.72;100.00;101015.16;6184785;23;20084;-77
2023/10/18 04:31:00;;;;;;;14.70;10.40;;;;;;;4.72;100.00;101015.16;6184519;23;20009;-78
2023/10/18 04:33:35;;;;;;;14.40;9.45;;;;;;;4.42;100.00;100960.78;6186789;23;20043;-80
2023/10/18 04:36:10;;;;;;;12.98;9.73;;;;;;;4.78;100.00;101006.41;6185191;23;20001;-76
2023/10/18 04:38:44;;;;;;;14.20;9.52;;;;;;;4.77;100.00;100995.34;6186586;23;20331;-79
2023/10/18 04:43:46;;;;;;;13.68;8.93;;;;;;;4.65;100.00;100977.06;6196370;23;20013;-80
2023/10/18 04:46:14;;;;;;;18.00;9.80;;;;;;;4.78;100.00;100991.88;6186248;23;20056;-78
2023/10/18 04:56:56;;;;;;;15.52;9.23;;;;;;;4.77;100.00;100986.84;6125624;23;20017;-80
2023/10/18 05:04:20;;;;;;;11.45;8.95;;;;;;;4.78;100.00;100971.41;6134002;23;20102;-79
2023/10/18 05:06:53;;;;;;;12.32;8.98;;;;;;;4.78;100.00;100970.59;6124141;23;20396;-79
2023/10/18 05:09:19;;;;;;;11.63;9.00;;;;;;;4.78;100.00;100968.88;6124159;23;20006;-80
2023/10/18 05:11:47;;;;;;;13.63;8.75;;;;;;;4.76;100.00;100973.22;6124167;23;20085;-79
2023/10/18 05:14:19;;;;;;;12.38;8.57;;;;;;;4.77;100.00;100971.47;6124221;23;20073;-76
2023/10/18 05:16:46;;;;;;;14.93;9.25;;;;;;;4.77;100.00;100964.63;6124057;23;20046;-76
2023/10/18 05:19:13;;;;;;;14.95;9.27;;;;;;;4.80;100.00;100959.41;6124214;23;20006;-76
2023/10/18 05:21:39;;;;;;;12.93;9.02;;;;;;;4.73;100.00;100949.47;6124448;23;20010;-80
2023/10/18 05:24:05;;;;;;;12.55;9.05;;;;;;;4.84;100.00;100962.69;6124059;23;20009;-80
2023/10/18 05:26:33;;;;;;;11.13;8.93;;;;;;;4.83;100.00;100967.00;6124250;23;20012;-79
2023/10/18 05:29:01;;;;;;;13.15;8.85;;;;;;;4.67;100.00;100934.34;6124359;23;20105;-80
2023/10/18 05:31:48;;;;;;;12.02;8.98;;;;;;;4.75;100.00;100953.63;6124120;23;20013;-74
2023/10/18 05:41:51;;;;;;;12.90;9.23;;;;;;;4.72;100.00;100925.63;6195917;23;20036;-79
2023/10/18 05:44:17;;;;;;;12.63;9.20;;;;;;;4.85;100.00;100951.56;6185561;23;20008;-80
2023/10/18 05:46:44;;;;;;;13.05;8.73;;;;;;;4.73;100.00;100919.59;6185504;23;20005;-78
2023/10/18 05:49:16;;;;;;;12.63;8.68;;;;;;;4.64;100.00;100911.44;6187005;23;20228;-79
2023/10/18 05:51:53;;;;;;;13.82;9.32;;;;;;;4.82;100.00;100939.72;6185780;23;20005;-79
2023/10/18 05:54:22;;;;;;;11.65;8.45;;;;;;;4.82;100.00;100939.72;6185561;23;20386;-79
2023/10/18 05:56:52;;;;;;;11.15;8.43;;;;;;;4.83;100.00;100941.41;6185888;23;20001;-79
2023/10/18 06:01:48;;;;;;;10.98;8.05;;;;;;;4.85;100.00;100933.66;6185572;23;20013;-79
2023/10/18 06:04:15;;;;;;;11.15;7.82;;;;;;;4.86;100.00;100933.59;6185342;23;20339;-79
2023/10/18 06:06:43;;;;;;;11.65;8.93;;;;;;;4.86;100.00;100925.09;6185374;23;20076;-79
2023/10/18 06:09:11;;;;;;;11.75;8.40;;;;;;;4.83;100.00;100920.94;6184959;23;20001;-76
2023/10/18 06:11:39;;;;;;;13.85;8.73;;;;;;;4.58;100.00;100885.19;6185673;23;20008;-79
2023/10/18 06:14:05;;;;;;;13.43;8.55;;;;;;;4.85;100.00;100923.44;6183688;23;20015;-79
2023/10/18 06:16:34;;;;;;;11.27;8.43;;;;;;;4.87;100.00;100921.63;6185429;23;20420;-79
2023/10/18 06:19:02;;;;;;;13.60;8.98;;;;;;;4.80;100.00;100898.00;6185467;23;20001;-75
2023/10/18 06:21:28;;;;;;;11.32;8.50;;;;;;;4.80;100.00;100897.16;6183010;23;20005;-78
2023/10/18 06:23:56;;;;;;;11.05;8.25;;;;;;;4.96;100.00;100916.19;6184639;23;20009;-78
2023/10/18 06:26:28;;;;;;;12.20;8.68;;;;;;;4.93;100.00;100900.13;6184866;23;20005;-79
2023/10/18 06:29:01;;;;;;;;;;;;;;;4.99;100.00;100907.53;6185547;23;19997;-75
2023/10/18 06:31:31;;;;;;;11.85;8.23;;;;;;;4.70;100.00;100852.38;6185239;23;19909;-77
2023/10/18 06:33:59;;;;;;;12.20;8.45;;;;;;;4.87;100.00;100875.59;6185038;23;20001;-80
2023/10/18 06:36:25;;;;;;;13.95;8.68;;;;;;;4.89;100.00;100869.50;6184925;23;20331;-78
2023/10/18 06:38:52;;;;;;;13.15;8.77;;;;;;;5.07;100.00;100892.72;6184742;23;20379;-82
2023/10/18 06:41:21;;;;;;;12.52;9.02;;;;;;;4.96;100.00;100853.94;6183528;23;20001;-77
2023/10/18 06:43:49;;;;;;;11.25;8.23;;;;;;;5.02;100.00;100857.09;6184822;23;20005;-79
2023/10/18 06:46:22;;;;;;;13.23;7.80;;;;;;;5.16;100.00;100882.94;6184914;23;20009;-78
2023/10/18 06:48:48;;;;;;;11.65;7.88;;;;;;;5.20;100.00;100873.41;6184629;23;20017;-78
2023/10/18 06:51:17;;;;;;;11.27;7.95;;;;;;;5.25;100.00;100874.09;6185036;23;20333;-81
2023/10/18 06:53:47;;;;;;;10.10;8.13;;;;;;;5.29;100.00;100873.06;6185103;23;20012;-80
2023/10/18 06:56:22;;;;;;;12.13;8.60;;;;;;;5.33;100.00;100871.22;6185525;23;20323;-82
2023/10/18 06:58:48;;;;;;;11.52;8.18;;;;;;;5.30;100.00;100858.53;6184571;23;20009;-81
2023/10/18 07:01:14;;;;;;;11.15;7.82;;;;;;;5.36;100.00;100858.28;6185188;23;20063;-81
2023/10/18 07:03:42;;;;;;;12.48;8.57;;;;;;;5.35;100.00;100841.25;6185713;23;20012;-79
2023/10/18 07:06:16;;;;;;;13.02;8.60;;;;;;;5.38;100.00;100843.69;6186861;23;20018;-80
2023/10/18 07:08:44;;;;;;;12.10;8.32;;;;;;;5.53;100.00;100860.16;6186577;23;20044;-76
2023/10/18 07:11:16;;;;;;;10.85;7.45;;;;;;;5.48;100.00;100847.53;6185457;23;20005;-76
2023/10/18 07:13:50;;;;;;;12.32;8.55;;;;;;;5.61;100.00;100858.94;6185048;23;20072;-76
2023/10/18 07:16:25;;;;;;;13.43;8.68;;;;;;;5.53;100.00;100840.50;6185695;23;20005;-77
2023/10/18 07:19:04;;;;;;;11.70;8.05;;;;;;;5.70;100.00;100848.31;6185049;23;20005;-76
2023/10/18 07:21:32;;;;;;;11.57;7.80;;;;;;;5.76;100.00;100852.31;6185151;23;20005;-79
2023/10/18 07:24:02;;;;;;;11.52;7.47;;;;;;;5.74;100.00;100843.88;6184649;23;20140;-82
2023/10/18 07:26:29;;;;;;;11.57;7.20;;;;;;;5.83;100.00;100853.75;6185237;23;20428;-81
2023/10/18 07:28:54;;;;;;;12.45;8.02;;;;;;;5.90;100.00;100844.94;6185241;23;20419;-80
2023/10/18 07:31:23;;;;;;;11.82;7.78;;;;;;;5.84;100.00;100818.69;6184541;23;20008;-80
2023/10/18 07:33:50;;;;;;;10.02;7.43;;;;;;;5.83;100.00;100804.22;6185104;23;20432;-82
2023/10/18 07:36:19;;;;;;;10.65;7.80;;;;;;;5.95;100.00;100814.78;6185192;23;20450;-77
2023/10/18 07:38:49;;;;;;;10.75;7.88;;;;;;;6.10;100.00;100826.13;6185181;23;20012;-79
2023/10/18 07:41:14;;;;;;;12.02;8.68;;;;;;;6.01;100.00;100793.19;6184996;23;20023;-79
2023/10/18 07:43:43;;;;;;;13.30;7.72;;;;;;;6.24;100.00;100825.47;6185082;23;20447;-78
2023/10/18 07:46:18;;;;;;;13.07;7.15;;;;;;;6.29;100.00;100819.25;6184402;23;20005;-77
2023/10/18 07:48:47;;;;;;;10.88;7.43;;;;;;;6.36;100.00;100818.97;6184467;23;20084;-78
2023/10/18 07:51:34;;;;;;;10.65;7.32;;;;;;;6.29;100.00;100787.63;6184954;23;20029;-77
2023/10/18 07:54:00;;;;;;;11.55;7.32;;;;;;;6.16;100.00;100746.34;6185358;23;20013;-81
2023/10/18 07:56:32;;;;;;;10.80;7.40;;;;;;;6.51;100.00;100796.00;6184450;23;20442;-81
2023/10/18 08:01:47;;;;;;;10.73;6.93;;;;;;;6.48;100.00;100770.47;6184883;23;20100;-78
2023/10/18 08:04:20;;;;;;;10.00;6.65;;;;;;;6.47;100.00;100775.69;6184330;23;20012;-80
2023/10/18 08:06:45;;;;;;;9.73;6.88;;;;;;;6.73;100.00;100800.13;6184502;23;20009;-77
2023/10/18 08:09:12;;;;;;;10.55;7.05;;;;;;;6.78;100.00;100798.16;6184863;23;20028;-79
2023/10/18 08:11:38;;;;;;;11.85;7.45;;;;;;;6.83;100.00;100794.50;6185693;23;20037;-81
2023/10/18 08:14:24;;;;;;;11.95;6.82;;;;;;;6.84;100.00;100788.44;6186460;23;20064;-80
2023/10/18 08:16:55;;;;;;;11.50;7.43;;;;;;;6.86;100.00;100789.19;6186805;23;20001;-81
2023/10/18 08:19:23;;;;;;;11.05;7.00;;;;;;;6.86;100.00;100767.84;6186168;23;20477;-81
2023/10/18 08:24:34;;;;;;;11.50;7.38;;;;;;;7.19;99.86;100784.19;6186517;23;20346;-80
2023/10/18 08:27:12;;;;;;;12.68;7.30;;;;;;;7.23;99.40;100768.59;6186165;23;20005;-78
2023/10/18 08:29:37;;;;;;;11.00;7.25;;;;;;;7.39;98.93;100782.34;6186299;23;20080;-79
2023/10/18 08:32:29;;;;;;;13.02;7.07;;;;;;;7.39;98.32;100766.94;6186058;23;20044;-81
2023/10/18 08:34:50;;;;;;;10.70;6.88;;;;;;;7.47;97.98;100749.38;6185851;23;20088;-80
2023/10/18 08:37:16;;;;;;;10.02;6.93;;;;;;;7.73;98.04;100779.69;6183618;23;20005;-81
2023/10/18 08:39:53;;;;;;;11.10;6.70;;;;;;;7.82;96.43;100772.41;6186349;23;20063;-78
2023/10/18 08:42:24;;;;;;;10.45;6.63;;;;;;;7.84;95.45;100762.88;6185803;23;20001;-80
2023/10/18 08:44:55;;;;;;;10.13;6.70;;;;;;;7.92;96.58;100768.47;6186182;23;20092;-80
2023/10/18 08:47:23;;;;;;;10.98;6.55;;;;;;;7.85;94.75;100746.53;6186409;23;20001;-78
2023/10/18 08:49:50;;;;;;;12.30;7.60;;;;;;;8.02;95.57;100770.47;6186657;23;20459;-81
2023/10/18 08:52:20;;;;;;;13.10;7.75;;;;;;;8.03;94.72;100761.81;6186441;23;20327;-78
2023/10/18 08:54:51;;;;;;;11.32;7.00;;;;;;;7.93;94.79;100732.38;6183529;23;20316;-81
2023/10/18 08:57:34;;;;;;;10.57;7.20;;;;;;;7.83;94.24;100708.06;6185779;23;20001;-78
2023/10/18 09:01:02;;;;;;;12.02;7.25;;;;;;;8.10;95.44;100741.75;6186190;23;20001;-79
2023/10/18 09:03:10;;;;;;;12.00;7.00;;;;;;;8.14;95.92;100735.53;6186166;23;20013;-80
2023/10/18 09:05:36;;;;;;;10.25;7.28;;;;;;;8.24;95.21;100731.53;6184876;23;20148;-77
2023/10/18 09:08:03;;;;;;;10.77;7.70;;;;;;;8.21;94.99;100712.88;6186419;23;20062;-82
2023/10/18 09:10:46;;;;;;;10.88;7.50;;;;;;;8.28;93.96;100719.34;6185688;23;20005;-82
2023/10/18 09:18:24;;;;;;;10.38;7.03;;;;;;;8.24;94.91;100695.53;6196192;23;20013;-82
2023/10/18 09:20:50;;;;;;;12.45;8.15;;;;;;;8.44;94.67;100716.78;6186009;23;20005;-82
2023/10/18 09:23:21;;;;;;;10.10;7.40;;;;;;;8.42;93.82;100703.19;6186177;23;20373;-84
2023/10/18 09:25:49;;;;;;;11.43;7.93;;;;;;;8.51;93.94;100706.06;6185615;23;20009;-83
2023/10/18 09:28:25;;;;;;;12.32;7.25;;;;;;;8.62;94.20;100708.03;6209364;23;20012;-82
2023/10/18 09:31:00;;;;;;;10.63;7.40;;;;;;;8.63;94.87;100692.50;6186092;23;20001;-82
2023/10/18 09:33:27;;;;;;;14.10;7.97;;;;;;;8.77;93.17;100701.19;6211613;23;20462;-81
2023/10/18 09:35:56;;;;;;;9.43;7.20;;;;;;;8.86;92.04;100701.50;6184625;23;20427;-81
2023/10/18 09:38:22;;;;;;;11.82;8.10;;;;;;;8.90;93.43;100687.50;6185554;23;20431;-82
2023/10/18 09:40:48;;;;;;;10.45;7.60;;;;;;;9.04;92.72;100688.44;6185495;23;20016;-84
2023/10/18 09:43:16;;;;;;;14.50;7.97;;;;;;;9.14;91.83;100674.09;6184492;23;20001;-78
2023/10/18 09:45:42;;;;;;;10.52;6.95;;;;;;;9.18;90.83;100679.00;6184819;23;20016;-81
2023/10/18 09:48:11;;;;;;;9.93;6.95;;;;;;;9.28;90.16;100687.00;6185590;23;20013;-78
2023/10/18 09:50:39;;;;;;;9.82;7.32;;;;;;;9.34;90.20;100671.19;6185546;23;20009;-81
2023/10/18 09:53:05;;;;;;;10.55;7.45;;;;;;;9.43;91.48;100667.19;6185500;23;20079;-78
2023/10/18 09:55:33;;;;;;;11.77;8.25;;;;;;;9.31;90.01;100632.69;6185702;23;20005;-80
2023/10/18 09:58:14;;;;;;;12.00;7.60;;;;;;;9.55;88.74;100656.16;6185063;23;20345;-81
2023/10/18 10:00:42;;;;;;;12.70;7.35;;;;;;;9.62;88.79;100649.69;6186288;23;20013;-79
2023/10/18 10:03:14;;;;;;;12.05;8.20;;;;;;;9.77;90.27;100651.31;6185950;23;20001;-79
2023/10/18 10:05:41;;;;;;;;;;;;;;;9.88;91.44;100650.66;6186126;23;20032;-79
2023/10/18 10:08:07;;;;;;;11.68;7.15;;;;;;;9.89;88.19;100633.41;6186005;23;20234;-79
2023/10/18 10:10:45;;;;;;;10.40;7.15;;;;;;;9.97;87.04;100621.69;6185534;23;20084;-79
2023/10/18 10:13:27;;;;;;;11.65;7.55;;;;;;;10.14;87.83;100624.97;6185406;23;20001;-79
2023/10/18 10:16:02;;;;;;;10.43;6.68;;;;;;;10.23;86.78;100627.81;6185392;23;20044;-80
2023/10/18 10:18:32;;;;;;;12.13;7.72;;;;;;;10.23;87.46;100612.31;6185624;23;20001;-79
2023/10/18 10:21:00;;;;;;;10.90;6.95;;;;;;;10.31;86.66;100611.81;6185377;23;20024;-79
2023/10/18 10:23:26;;;;;;;10.43;7.10;;;;;;;10.18;86.50;100577.38;6185197;23;20005;-79
2023/10/18 10:26:22;;;;;;;11.55;7.43;;;;;;;10.38;87.46;100591.59;6185463;23;20032;-80
2023/10/18 10:31:51;;;;;;;;;;;;;;;10.48;86.66;100577.97;6196010;23;20013;-79
2023/10/18 10:34:24;;;;;;;11.77;7.97;;;;;;;10.36;86.64;100568.47;6185139;23;19908;-82
2023/10/18 10:36:51;;;;;;;11.95;8.20;;;;;;;10.34;85.67;100547.09;6185260;23;20423;-81
2023/10/18 10:39:30;;;;;;;13.68;8.18;;;;;;;10.36;86.23;100536.66;6185214;23;20439;-79
2023/10/18 10:42:01;;;;;;;11.98;7.45;;;;;;;10.46;85.91;100545.44;6207657;23;20036;-77
2023/10/18 10:44:30;;;;;;;12.93;7.60;;;;;;;10.47;86.24;100550.50;6184816;23;20005;-76
2023/10/18 10:47:30;;;;;;;9.15;7.05;;;;;;;10.60;88.84;100541.00;6185293;23;20004;-79
2023/10/18 10:50:00;;;;;;;11.93;7.25;;;;;;;10.34;86.51;100477.41;6184951;23;20020;-77
2023/10/18 10:52:31;;;;;;;11.60;7.18;;;;;;;10.57;86.83;100505.06;6185342;23;20005;-75
2023/10/18 10:55:15;;;;;;;11.95;7.75;;;;;;;10.79;86.80;100526.84;6184941;23;20005;-78
2023/10/18 10:57:46;;;;;;;11.13;7.40;;;;;;;10.84;86.30;100519.63;6184928;23;20060;-80
2023/10/18 11:03:06;;;;;;;11.38;7.68;;;;;;;11.06;85.87;100517.19;6184852;23;20086;-77
2023/10/18 11:05:39;;;;;;;11.20;7.35;;;;;;;11.12;85.88;100513.34;6184983;23;20151;-81
2023/10/18 11:08:05;;;;;;;10.93;7.20;;;;;;;10.86;84.92;100468.66;6185175;23;20412;-78
2023/10/18 11:10:39;;;;;;;9.15;6.80;;;;;;;11.13;84.04;100507.25;6182384;23;20015;-79
2023/10/18 11:13:13;;;;;;;12.02;8.05;;;;;;;11.09;84.12;100490.28;6185011;23;20112;-80
2023/10/18 11:15:42;;;;;;;11.63;7.55;;;;;;;11.02;85.42;100464.09;6185064;23;20080;-79
2023/10/18 11:18:20;;;;;;;8.63;7.10;;;;;;;11.15;83.81;100471.78;6184915;23;20005;-78
2023/10/18 11:21:18;;;;;;;11.70;7.38;;;;;;;11.12;84.02;100469.44;6185043;23;20005;-80
2023/10/18 11:23:46;;;;;;;10.90;7.30;;;;;;;11.09;84.79;100443.78;6184877;23;20352;-77
2023/10/18 11:26:19;;;;;;;12.95;7.45;;;;;;;11.27;85.43;100463.16;6207375;23;20009;-80
2023/10/18 11:28:48;;;;;;;10.65;7.50;;;;;;;11.20;85.28;100438.66;6184533;23;20436;-80
2023/10/18 11:31:14;;;;;;;12.57;7.57;;;;;;;11.38;85.20;100458.03;6184631;23;20006;-81
2023/10/18 11:33:56;;;;;;;9.95;7.45;;;;;;;11.43;84.40;100455.13;6185420;23;20008;-80
2023/10/18 11:36:21;;;;;;;10.27;6.80;;;;;;;11.53;86.30;100450.94;6185175;23;20005;-76
2023/10/18 11:41:36;;;;;;;10.13;7.55;;;;;;;11.55;83.35;100424.97;6184886;23;20069;-79
2023/10/18 11:44:10;;;;;;;10.65;7.20;;;;;;;11.56;83.94;100404.16;6182838;23;20005;-79
2023/10/18 11:46:56;;;;;;;10.48;6.75;;;;;;;11.72;83.28;100433.13;6186172;23;20024;-80
2023/10/18 11:49:22;;;;;;;10.65;7.18;;;;;;;11.75;83.89;100427.72;6186989;23;20013;-79
2023/10/18 11:51:53;;;;;;;10.45;7.72;;;;;;;11.80;84.58;100421.41;6186527;23;20028;-78
2023/10/18 11:54:33;;;;;;;11.18;7.90;;;;;;;11.53;83.91;100375.13;6186329;23;20071;-80
2023/10/18 11:57:00;;;;;;;13.27;7.43;;;;;;;11.67;83.79;100393.00;6186778;23;20032;-80
2023/10/18 11:59:28;;;;;;;12.57;7.47;;;;;;;11.76;84.52;100387.16;6184637;23;20062;-77
2023/10/18 12:02:05;;;;;;;12.10;7.50;;;;;;;11.65;84.25;100338.00;6186568;23;20092;-79
2023/10/18 12:04:37;;;;;;;10.43;7.03;;;;;;;11.82;83.28;100366.03;6186166;23;20068;-77
2023/10/18 12:07:04;;;;;;;10.30;7.68;;;;;;;11.87;82.95;100363.91;6186663;23;20439;-79
2023/10/18 12:09:42;;;;;;;10.43;7.07;;;;;;;12.02;83.63;100372.28;6186466;23;20029;-81
2023/10/18 12:12:14;;;;;;;10.00;6.88;;;;;;;11.94;83.01;100351.34;6186399;23;20005;-78
2023/10/18 12:14:41;;;;;;;;;;;;;;;12.11;85.16;100355.25;6186696;23;20339;-79
2023/10/18 12:17:07;;;;;;;9.52;6.80;;;;;;;12.12;82.89;100355.13;6186379;23;20001;-78